createdAt,value
2018-08-18T00:02:07.225Z,20.80
2018-08-18T00:07:10.538Z,20.90
2018-08-18T00:12:19.318Z,20.90
2018-08-18T00:17:22.699Z,20.90
2018-08-18T00:22:26.005Z,20.90
2018-08-18T00:27:29.340Z,20.90
2018-08-18T00:32:32.649Z,20.80
2018-08-18T00:37:36.189Z,20.70
2018-08-18T00:42:39.735Z,20.70
2018-08-18T00:47:43.182Z,20.70
2018-08-18T00:52:46.507Z,20.70
2018-08-18T00:57:49.778Z,20.60
2018-08-18T01:02:53.296Z,20.50
2018-08-18T01:07:56.576Z,20.50
2018-08-18T01:13:00.019Z,20.40
2018-08-18T01:18:03.337Z,20.40
2018-08-18T01:23:06.611Z,20.20
2018-08-18T01:33:12.909Z,20.10
2018-08-18T01:38:16.389Z,20.10
2018-08-18T01:43:19.661Z,20.00
2018-08-18T01:48:23.171Z,20.00
2018-08-18T01:53:26.462Z,19.80
2018-08-18T01:58:29.894Z,19.70
2018-08-18T02:03:33.182Z,19.60
2018-08-18T02:08:52.983Z,19.60
2018-08-18T02:13:56.984Z,19.50
2018-08-18T02:19:00.298Z,19.50
2018-08-18T02:24:06.349Z,19.40
2018-08-18T02:29:09.769Z,19.30
2018-08-18T02:34:13.097Z,19.20
2018-08-18T02:39:16.444Z,19.20
2018-08-18T02:44:19.893Z,19.20
2018-08-18T02:49:23.280Z,19.20
2018-08-18T02:54:30.798Z,19.20
2018-08-18T02:59:34.350Z,19.10
2018-08-18T03:04:43.041Z,19.10
2018-08-18T03:09:46.307Z,19.00
2018-08-18T03:14:49.596Z,19.00
2018-08-18T03:19:52.955Z,18.90
2018-08-18T03:24:56.242Z,18.80
2018-08-18T03:29:59.577Z,18.70
2018-08-18T03:35:02.999Z,18.70
2018-08-18T03:40:06.485Z,18.60
2018-08-18T03:45:09.773Z,18.60
2018-08-18T03:50:13.058Z,18.50
2018-08-18T03:55:17.065Z,18.50
2018-08-18T04:00:20.370Z,18.50
2018-08-18T04:05:23.721Z,18.50
2018-08-18T04:10:27.109Z,18.40
2018-08-18T04:15:30.581Z,18.40
2018-08-18T04:20:33.869Z,18.40
2018-08-18T04:25:37.229Z,18.40
2018-08-18T04:30:40.665Z,18.40
2018-08-18T04:35:48.341Z,18.40
2018-08-18T04:40:51.659Z,18.50
2018-08-18T04:45:54.945Z,18.50
2018-08-18T04:50:58.283Z,18.60
2018-08-18T04:56:01.693Z,18.60
2018-08-18T05:01:05.031Z,18.70
2018-08-18T05:11:11.429Z,18.80
2018-08-18T05:16:14.989Z,18.90
2018-08-18T05:21:19.222Z,19.00
2018-08-18T05:26:22.965Z,19.10
2018-08-18T05:31:26.273Z,19.20
2018-08-18T05:36:29.839Z,19.30
2018-08-18T05:41:33.920Z,19.50
2018-08-18T05:46:37.229Z,19.70
2018-08-18T05:51:47.917Z,19.80
2018-08-18T05:56:51.225Z,20.00
2018-08-18T06:01:54.577Z,20.10
2018-08-18T06:06:58.141Z,20.10
2018-08-18T06:12:07.023Z,20.20
2018-08-18T06:17:12.024Z,20.20
2018-08-18T06:22:15.350Z,20.20
2018-08-18T06:27:21.172Z,20.20
2018-08-18T06:32:24.557Z,20.30
2018-08-18T06:37:27.961Z,20.30
2018-08-18T06:42:38.441Z,20.50
2018-08-18T06:47:42.273Z,20.70
2018-08-18T06:52:46.493Z,20.90
2018-08-18T06:57:51.851Z,21.10
2018-08-18T07:02:55.224Z,21.10
2018-08-18T07:07:58.567Z,21.30
2018-08-18T07:13:05.050Z,21.50
2018-08-18T07:18:09.494Z,21.50
2018-08-18T07:23:12.829Z,21.60
2018-08-18T07:28:20.375Z,21.60
2018-08-18T07:33:23.716Z,21.60
2018-08-18T07:38:27.149Z,21.80
2018-08-18T07:43:32.755Z,22.00
2018-08-18T07:48:36.054Z,22.20
2018-08-18T07:53:39.390Z,22.50
2018-08-18T07:58:42.984Z,22.70
2018-08-18T08:03:46.367Z,22.90
2018-08-18T08:08:49.729Z,23.40
2018-08-18T08:13:53.053Z,23.50
2018-08-18T08:18:56.368Z,23.80
2018-08-18T08:23:59.825Z,23.90
2018-08-18T08:29:03.169Z,24.10
2018-08-18T08:34:06.680Z,24.20
2018-08-18T08:39:10.026Z,24.40
2018-08-18T08:44:13.297Z,24.80
2018-08-18T08:49:16.565Z,24.90
2018-08-18T08:54:19.828Z,24.80
2018-08-18T08:59:23.229Z,24.80
2018-08-18T09:04:26.612Z,25.00
2018-08-18T09:09:29.969Z,25.20
2018-08-18T09:14:33.398Z,25.40
2018-08-18T09:19:37.729Z,25.60
2018-08-18T09:24:41.035Z,25.70
2018-08-18T09:29:46.329Z,25.70
2018-08-18T09:34:51.329Z,25.60
2018-08-18T09:39:54.646Z,25.80
2018-08-18T09:44:58.068Z,25.80
2018-08-18T09:50:01.488Z,26.00
2018-08-18T09:55:05.023Z,26.30
2018-08-18T10:00:12.843Z,26.50
2018-08-18T10:05:16.224Z,26.50
2018-08-18T10:10:19.639Z,26.50
2018-08-18T10:15:23.010Z,26.40
2018-08-18T10:20:26.462Z,26.60
2018-08-18T10:25:29.741Z,26.80
2018-08-18T10:30:33.067Z,27.00
2018-08-18T10:35:36.697Z,27.00
2018-08-18T10:40:40.072Z,27.20
2018-08-18T10:45:53.063Z,27.30
2018-08-18T10:51:38.607Z,27.70
2018-08-18T10:56:41.874Z,27.70
2018-08-18T11:02:26.015Z,28.20
2018-08-18T11:07:29.369Z,27.90
2018-08-18T11:12:34.450Z,28.10
2018-08-18T11:17:37.966Z,28.50
2018-08-18T11:22:54.038Z,28.50
2018-08-18T11:27:57.932Z,28.80
2018-08-18T11:33:01.857Z,28.50
2018-08-18T11:38:08.835Z,28.70
2018-08-18T11:43:14.556Z,28.70
2018-08-18T11:48:20.049Z,28.80
2018-08-18T11:53:23.324Z,29.10
2018-08-18T11:58:26.620Z,29.10
2018-08-18T12:03:31.723Z,29.40
2018-08-18T12:08:36.145Z,28.90
2018-08-18T12:13:41.734Z,29.20
2018-08-18T12:18:46.183Z,29.30
2018-08-18T12:23:49.468Z,29.90
2018-08-18T12:28:55.511Z,30.00
2018-08-18T12:33:58.912Z,30.10
2018-08-18T12:39:02.278Z,30.20
2018-08-18T12:44:05.586Z,30.30
2018-08-18T12:49:08.909Z,30.50
2018-08-18T12:54:12.193Z,30.30
2018-08-18T13:04:21.717Z,29.90
2018-08-18T13:09:26.229Z,29.90
2018-08-18T13:14:30.698Z,29.80
2018-08-18T13:19:34.860Z,30.00
2018-08-18T13:24:38.216Z,29.80
2018-08-18T13:29:41.491Z,29.70
2018-08-18T13:34:44.777Z,29.60
2018-08-18T13:39:48.249Z,29.50
2018-08-18T13:44:52.789Z,29.60
2018-08-18T13:50:02.212Z,29.40
2018-08-18T13:55:05.573Z,30.10
2018-08-18T14:00:13.423Z,30.70
2018-08-18T14:05:20.969Z,30.70
2018-08-18T14:10:24.394Z,30.50
2018-08-18T14:15:27.684Z,30.80
2018-08-18T14:20:31.621Z,31.10
2018-08-18T14:25:35.722Z,30.80
2018-08-18T14:30:39.356Z,30.50
2018-08-18T14:35:42.626Z,30.20
2018-08-18T14:40:46.472Z,31.00
2018-08-18T14:45:49.902Z,31.50
2018-08-18T14:50:53.202Z,32.00
2018-08-18T14:55:56.503Z,31.90
2018-08-18T15:01:05.253Z,32.00
2018-08-18T15:06:09.570Z,32.00
2018-08-18T15:11:13.901Z,31.60
2018-08-18T15:16:17.828Z,31.20
2018-08-18T15:21:21.145Z,31.00
2018-08-18T15:26:24.430Z,30.70
2018-08-18T15:31:27.858Z,30.60
2018-08-18T15:36:32.776Z,31.10
2018-08-18T15:41:36.354Z,30.80
2018-08-18T15:46:39.656Z,30.00
2018-08-18T15:56:46.100Z,29.20
2018-08-18T16:01:49.405Z,29.20
2018-08-18T16:11:55.893Z,28.50
2018-08-18T16:17:01.202Z,28.30
2018-08-18T16:22:05.401Z,28.00
2018-08-18T16:27:08.809Z,27.40
2018-08-18T16:32:19.236Z,27.10
2018-08-18T16:37:22.569Z,26.20
2018-08-18T16:42:25.849Z,25.70
2018-08-18T16:47:29.237Z,25.30
2018-08-18T16:52:32.520Z,24.70
2018-08-18T16:57:36.045Z,24.70
2018-08-18T17:02:39.506Z,24.40
2018-08-18T17:07:43.525Z,24.30
2018-08-18T17:12:46.812Z,24.10
2018-08-18T17:17:50.096Z,23.80
2018-08-18T17:22:53.461Z,23.60
2018-08-18T17:27:56.909Z,24.00
2018-08-18T17:33:00.299Z,23.70
2018-08-18T17:38:03.693Z,23.40
2018-08-18T17:43:06.979Z,23.20
2018-08-18T17:48:10.461Z,23.00
2018-08-18T17:58:16.942Z,22.50
2018-08-18T18:03:20.400Z,22.30
2018-08-18T18:08:23.751Z,22.30
2018-08-18T18:13:28.221Z,22.20
2018-08-18T18:18:45.963Z,21.80
2018-08-18T18:23:49.316Z,21.50
2018-08-18T18:28:52.610Z,21.70
2018-08-18T18:34:01.194Z,21.80
2018-08-18T18:39:04.851Z,21.80
2018-08-18T18:44:08.201Z,21.70
2018-08-18T18:49:24.378Z,21.70
2018-08-18T18:54:27.857Z,21.60
2018-08-18T18:59:31.220Z,21.60
2018-08-18T19:04:34.649Z,21.60
2018-08-18T19:09:37.978Z,21.60
2018-08-18T19:14:41.277Z,21.50
2018-08-18T19:19:44.569Z,21.50
2018-08-18T19:24:48.109Z,21.50
2018-08-18T19:29:51.412Z,21.40
2018-08-18T19:34:54.720Z,21.30
2018-08-18T19:39:58.165Z,21.20
2018-08-18T19:45:01.462Z,21.10
2018-08-18T19:50:05.546Z,21.10
2018-08-18T19:55:10.507Z,21.10
2018-08-18T20:00:19.290Z,21.20
2018-08-18T20:05:23.200Z,21.10
2018-08-18T20:10:26.558Z,21.10
2018-08-18T20:15:30.141Z,21.10
2018-08-18T20:20:33.416Z,21.10
2018-08-18T20:25:37.138Z,21.10
2018-08-18T20:30:40.468Z,21.10
2018-08-18T20:35:43.839Z,21.00
2018-08-18T20:40:47.280Z,21.00
2018-08-18T20:50:54.038Z,20.90
2018-08-18T20:55:59.685Z,20.80
2018-08-18T21:01:03.448Z,20.80
2018-08-18T21:06:06.841Z,20.70
2018-08-18T21:11:10.224Z,20.50
2018-08-18T21:16:13.604Z,20.40
2018-08-18T21:21:35.881Z,20.40
2018-08-18T21:26:39.281Z,20.50
2018-08-18T21:31:42.633Z,20.40
2018-08-18T21:36:46.069Z,20.40
2018-08-18T21:41:49.409Z,20.40
2018-08-18T21:46:52.693Z,20.30
2018-08-18T21:51:57.493Z,20.20
2018-08-18T21:57:00.966Z,20.10
2018-08-18T22:02:04.348Z,20.10
2018-08-18T22:07:07.940Z,20.10
2018-08-18T22:12:11.217Z,20.00
2018-08-18T22:17:14.677Z,19.90
2018-08-18T22:22:22.208Z,19.90
2018-08-18T22:27:25.761Z,19.90
2018-08-18T22:32:29.097Z,19.80
2018-08-18T22:37:32.422Z,19.70
2018-08-18T22:42:35.738Z,19.60
2018-08-18T22:47:39.045Z,19.50
2018-08-18T22:52:44.393Z,19.50
2018-08-18T22:58:03.409Z,19.50
2018-08-18T23:03:06.822Z,19.40
2018-08-18T23:08:10.114Z,19.40
2018-08-18T23:13:13.424Z,19.20
2018-08-18T23:18:16.737Z,19.20
2018-08-18T23:23:20.217Z,19.20
2018-08-18T23:28:23.697Z,19.00
2018-08-18T23:33:27.197Z,19.00
2018-08-18T23:38:30.496Z,19.00
2018-08-18T23:48:37.256Z,19.00
2018-08-18T23:53:40.561Z,19.00
2018-08-18T23:58:43.872Z,18.90
